createdAt,value
2017-04-14T00:00:09.223Z,100560
2017-04-14T00:01:09.422Z,100557
2017-04-14T00:02:09.825Z,100558
2017-04-14T00:03:10.644Z,100551
2017-04-14T00:04:10.776Z,100561
2017-04-14T00:05:11.659Z,100561
2017-04-14T00:06:11.738Z,100557
2017-04-14T00:07:12.239Z,100557
2017-04-14T00:08:12.385Z,100555
2017-04-14T00:09:12.422Z,100558
2017-04-14T00:10:18.101Z,100562
2017-04-14T00:11:18.211Z,100551
2017-04-14T00:12:18.617Z,100554
2017-04-14T00:13:19.419Z,100553
2017-04-14T00:14:19.473Z,100560
2017-04-14T00:15:19.620Z,100554
2017-04-14T00:16:19.700Z,100554
2017-04-14T00:17:20.084Z,100563
2017-04-14T00:18:20.187Z,100554
2017-04-14T00:19:20.372Z,100551
2017-04-14T00:20:20.451Z,100545
2017-04-14T00:21:20.523Z,100551
2017-04-14T00:22:21.019Z,100545
2017-04-14T00:23:21.052Z,100555
2017-04-14T00:24:21.139Z,100560
2017-04-14T00:25:21.265Z,100558
2017-04-14T00:26:21.594Z,100556
2017-04-14T00:27:22.212Z,100557
2017-04-14T00:28:23.431Z,100561
2017-04-14T00:29:23.523Z,100558
2017-04-14T00:30:23.586Z,100551
2017-04-14T00:31:23.706Z,100550
2017-04-14T00:32:24.210Z,100561
2017-04-14T00:33:24.274Z,100555
2017-04-14T00:34:24.323Z,100552
2017-04-14T00:35:24.383Z,100552
2017-04-14T00:36:24.463Z,100549
2017-04-14T00:37:24.893Z,100549
2017-04-14T00:38:24.966Z,100543
2017-04-14T00:39:25.798Z,100545
2017-04-14T00:40:26.633Z,100555
2017-04-14T00:41:26.755Z,100559
2017-04-14T00:42:27.182Z,100544
2017-04-14T00:43:28.045Z,100545
2017-04-14T00:44:28.208Z,100557
2017-04-14T00:45:28.291Z,100556
2017-04-14T00:46:28.337Z,100554
2017-04-14T00:47:28.774Z,100562
2017-04-14T00:48:28.962Z,100555
2017-04-14T00:49:29.058Z,100554
2017-04-14T00:50:29.139Z,100553
2017-04-14T00:51:29.960Z,100547
2017-04-14T00:52:30.454Z,100552
2017-04-14T00:53:30.536Z,100559
2017-04-14T00:54:31.298Z,100552
2017-04-14T00:55:31.407Z,100552
2017-04-14T00:56:31.475Z,100544
2017-04-14T00:57:31.883Z,100553
2017-04-14T00:58:32.341Z,100546
2017-04-14T00:59:32.401Z,100553
2017-04-14T01:00:32.466Z,100551
2017-04-14T01:01:32.513Z,100553
2017-04-14T01:02:33.276Z,100551
2017-04-14T01:03:33.322Z,100554
2017-04-14T01:04:33.428Z,100548
2017-04-14T01:05:33.607Z,100547
2017-04-14T01:06:33.668Z,100555
2017-04-14T01:07:34.160Z,100547
2017-04-14T01:08:34.505Z,100550
2017-04-14T01:09:34.542Z,100549
2017-04-14T01:10:34.646Z,100547
2017-04-14T01:11:34.780Z,100552
2017-04-14T01:12:35.200Z,100550
2017-04-14T01:13:35.395Z,100549
2017-04-14T01:14:35.426Z,100535
2017-04-14T01:15:35.435Z,100543
2017-04-14T01:16:35.450Z,100541
2017-04-14T01:17:36.638Z,100542
2017-04-14T01:18:36.682Z,100542
2017-04-14T01:19:36.875Z,100537
2017-04-14T01:20:36.979Z,100544
2017-04-14T01:21:37.151Z,100549
2017-04-14T01:22:37.811Z,100541
2017-04-14T01:23:37.888Z,100532
2017-04-14T01:24:38.672Z,100539
2017-04-14T01:25:39.434Z,100539
2017-04-14T01:26:39.556Z,100539
2017-04-14T01:27:40.687Z,100537
2017-04-14T01:28:41.502Z,100541
2017-04-14T01:29:41.582Z,100542
2017-04-14T01:30:41.623Z,100540
2017-04-14T01:31:41.701Z,100541
2017-04-14T01:32:42.041Z,100542
2017-04-14T01:33:49.399Z,100542
2017-04-14T01:34:49.459Z,100541
2017-04-14T01:35:49.532Z,100534
2017-04-14T01:36:49.588Z,100524
2017-04-14T01:37:49.961Z,100527
2017-04-14T01:38:50.019Z,100535
2017-04-14T01:39:50.151Z,100533
2017-04-14T01:40:50.158Z,100531
2017-04-14T01:41:50.211Z,100531
2017-04-14T01:42:50.611Z,100539
2017-04-14T01:43:50.687Z,100528
2017-04-14T01:44:50.883Z,100535
2017-04-14T01:45:50.911Z,100527
2017-04-14T01:46:58.318Z,100535
2017-04-14T01:48:02.383Z,100537
2017-04-14T01:49:02.449Z,100538
2017-04-14T01:50:02.645Z,100531
2017-04-14T01:51:03.466Z,100538
2017-04-14T01:52:03.586Z,100533
2017-04-14T01:53:03.988Z,100538
2017-04-14T01:54:03.986Z,100534
2017-04-14T01:55:04.025Z,100538
2017-04-14T01:56:04.153Z,100534
2017-04-14T01:57:04.273Z,100527
2017-04-14T01:58:04.830Z,100531
2017-04-14T01:59:05.600Z,100535
2017-04-14T02:00:05.706Z,100536
2017-04-14T02:01:05.860Z,100536
2017-04-14T02:02:05.890Z,100537
2017-04-14T02:03:07.092Z,100540
2017-04-14T02:04:07.199Z,100542
2017-04-14T02:05:07.297Z,100531
2017-04-14T02:06:07.443Z,100533
2017-04-14T02:07:08.248Z,100541
2017-04-14T02:08:08.597Z,100537
2017-04-14T02:09:08.631Z,100540
2017-04-14T02:10:08.901Z,100535
2017-04-14T02:11:08.936Z,100545
2017-04-14T02:12:08.990Z,100532
2017-04-14T02:13:09.548Z,100530
2017-04-14T02:14:09.604Z,100532
2017-04-14T02:15:09.731Z,100535
2017-04-14T02:16:09.794Z,100543
2017-04-14T02:17:09.875Z,100533
2017-04-14T02:18:10.299Z,100536
2017-04-14T02:19:10.383Z,100539
2017-04-14T02:20:10.441Z,100539
2017-04-14T02:21:10.484Z,100539
2017-04-14T02:22:10.510Z,100531
2017-04-14T02:23:10.936Z,100535
2017-04-14T02:24:11.729Z,100536
2017-04-14T02:25:11.783Z,100544
2017-04-14T02:26:11.906Z,100545
2017-04-14T02:27:11.952Z,100542
2017-04-14T02:28:12.335Z,100541
2017-04-14T02:29:12.411Z,100543
2017-04-14T02:30:13.275Z,100544
2017-04-14T02:31:13.353Z,100544
2017-04-14T02:32:13.381Z,100548
2017-04-14T02:33:13.784Z,100538
2017-04-14T02:34:13.849Z,100545
2017-04-14T02:35:13.992Z,100549
2017-04-14T02:36:14.078Z,100543
2017-04-14T02:37:14.189Z,100544
2017-04-14T02:38:14.734Z,100549
2017-04-14T02:39:14.793Z,100546
2017-04-14T02:40:14.883Z,100542
2017-04-14T02:41:15.019Z,100559
2017-04-14T02:42:15.065Z,100549
2017-04-14T02:43:16.260Z,100551
2017-04-14T02:44:16.260Z,100548
2017-04-14T02:45:16.368Z,100558
2017-04-14T02:46:17.161Z,100554
2017-04-14T02:47:17.315Z,100551
2017-04-14T02:48:17.865Z,100545
2017-04-14T02:49:17.966Z,100554
2017-04-14T02:50:18.066Z,100545
2017-04-14T02:51:18.092Z,100543
2017-04-14T02:52:18.121Z,100542
2017-04-14T02:53:18.594Z,100545
2017-04-14T02:54:18.657Z,100538
2017-04-14T02:55:18.826Z,100546
2017-04-14T02:56:18.847Z,100551
2017-04-14T02:57:18.919Z,100549
2017-04-14T02:58:19.364Z,100550
2017-04-14T02:59:19.364Z,100546
2017-04-14T03:00:19.431Z,100554
2017-04-14T03:01:19.555Z,100547
2017-04-14T03:02:19.630Z,100543
2017-04-14T03:03:20.740Z,100550
2017-04-14T03:04:20.773Z,100548
2017-04-14T03:05:20.864Z,100542
2017-04-14T03:06:21.106Z,100548
2017-04-14T03:07:21.187Z,100551
2017-04-14T03:08:21.610Z,100555
2017-04-14T03:09:21.653Z,100554
2017-04-14T03:10:21.727Z,100554
2017-04-14T03:11:21.786Z,100553
2017-04-14T03:12:21.882Z,100550
2017-04-14T03:13:22.379Z,100555
2017-04-14T03:14:22.479Z,100549
2017-04-14T03:15:22.553Z,100547
2017-04-14T03:16:23.344Z,100547
2017-04-14T03:17:23.464Z,100552
2017-04-14T03:18:23.903Z,100553
2017-04-14T03:19:24.475Z,100547
2017-04-14T03:20:24.546Z,100543
2017-04-14T03:21:24.608Z,100541
2017-04-14T03:22:24.673Z,100547
2017-04-14T03:23:25.336Z,100545
2017-04-14T03:24:25.388Z,100539
2017-04-14T03:25:25.436Z,100549
2017-04-14T03:26:25.510Z,100546
2017-04-14T03:27:25.537Z,100546
2017-04-14T03:28:25.998Z,100553
2017-04-14T03:29:26.794Z,100552
2017-04-14T03:30:26.849Z,100548
2017-04-14T03:31:26.912Z,100542
2017-04-14T03:32:27.016Z,100542
2017-04-14T03:33:27.450Z,100544
2017-04-14T03:34:27.465Z,100548
2017-04-14T03:35:27.621Z,100546
2017-04-14T03:36:27.722Z,100546
2017-04-14T03:37:27.818Z,100545
2017-04-14T03:38:28.158Z,100540
2017-04-14T03:39:28.207Z,100544
2017-04-14T03:40:28.260Z,100545
2017-04-14T03:41:28.274Z,100551
2017-04-14T03:42:28.417Z,100539
2017-04-14T03:43:28.749Z,100550
2017-04-14T03:44:28.826Z,100545
2017-04-14T03:45:28.833Z,100545
2017-04-14T03:46:28.863Z,100544
2017-04-14T03:47:28.933Z,100546
2017-04-14T03:48:29.424Z,100542
2017-04-14T03:49:29.624Z,100545
2017-04-14T03:50:29.657Z,100544
2017-04-14T03:51:29.747Z,100547
2017-04-14T03:52:29.865Z,100555
2017-04-14T03:53:30.356Z,100545
2017-04-14T03:54:30.390Z,100565
2017-04-14T03:55:30.427Z,100552
2017-04-14T03:56:30.506Z,100553
2017-04-14T03:57:30.581Z,100551
2017-04-14T03:58:31.734Z,100561
2017-04-14T03:59:31.775Z,100563
2017-04-14T04:00:31.829Z,100562
2017-04-14T04:01:31.886Z,100556
2017-04-14T04:02:31.916Z,100561
2017-04-14T04:03:32.487Z,100565
2017-04-14T04:04:32.719Z,100562
2017-04-14T04:05:32.737Z,100562
2017-04-14T04:06:32.910Z,100564
2017-04-14T04:07:33.190Z,100558
2017-04-14T04:08:33.502Z,100564
2017-04-14T04:09:33.596Z,100572
2017-04-14T04:10:33.654Z,100568
2017-04-14T04:11:33.706Z,100574
2017-04-14T04:12:33.762Z,100562
2017-04-14T04:13:34.293Z,100568
2017-04-14T04:14:34.268Z,100562
2017-04-14T04:15:34.292Z,100566
2017-04-14T04:16:37.521Z,100570
2017-04-14T04:17:37.686Z,100564
2017-04-14T04:18:38.005Z,100573
2017-04-14T04:19:38.130Z,100570
2017-04-14T04:20:38.154Z,100572
2017-04-14T04:21:38.234Z,100568
2017-04-14T04:22:38.294Z,100570
2017-04-14T04:23:38.751Z,100571
2017-04-14T04:24:39.583Z,100562
2017-04-14T04:25:39.662Z,100570
2017-04-14T04:26:39.749Z,100569
2017-04-14T04:27:39.792Z,100565
2017-04-14T04:28:41.028Z,100577
2017-04-14T04:29:41.835Z,100572
2017-04-14T04:30:41.926Z,100574
2017-04-14T04:31:47.256Z,100573
2017-04-14T04:32:52.666Z,100569
2017-04-14T04:33:58.442Z,100573
2017-04-14T04:34:58.570Z,100568
2017-04-14T04:35:58.606Z,100567
2017-04-14T04:36:58.670Z,100570
2017-04-14T04:37:58.859Z,100571
2017-04-14T04:38:59.175Z,100572
2017-04-14T04:39:59.263Z,100575
2017-04-14T04:40:59.247Z,100567
2017-04-14T04:41:59.281Z,100570
2017-04-14T04:42:59.318Z,100571
2017-04-14T04:43:59.719Z,100581
2017-04-14T04:44:59.782Z,100579
2017-04-14T04:46:00.601Z,100576
2017-04-14T04:47:00.618Z,100576
2017-04-14T04:48:00.697Z,100582
2017-04-14T04:49:01.132Z,100579
2017-04-14T04:50:02.392Z,100582
2017-04-14T04:51:02.415Z,100575
2017-04-14T04:52:02.515Z,100592
2017-04-14T04:53:02.596Z,100586
2017-04-14T04:54:03.722Z,100578
2017-04-14T04:55:03.874Z,100558
2017-04-14T04:56:03.910Z,100587
2017-04-14T04:57:10.543Z,100587
2017-04-14T04:58:10.580Z,100592
2017-04-14T04:59:10.917Z,100588
2017-04-14T05:00:10.945Z,100588
2017-04-14T05:01:11.720Z,100587
2017-04-14T05:02:11.752Z,100587
2017-04-14T05:03:11.790Z,100583
2017-04-14T05:04:12.370Z,100583
2017-04-14T05:05:12.526Z,100582
2017-04-14T05:06:12.573Z,100599
2017-04-14T05:07:12.759Z,100582
2017-04-14T05:08:12.866Z,100594
2017-04-14T05:09:13.168Z,100594
2017-04-14T05:10:13.229Z,100598
2017-04-14T05:11:13.296Z,100601
2017-04-14T05:12:13.316Z,100598
2017-04-14T05:13:13.332Z,100605
2017-04-14T05:14:13.802Z,100602
2017-04-14T05:15:13.853Z,100595
2017-04-14T05:16:13.978Z,100600
2017-04-14T05:17:14.014Z,100599
2017-04-14T05:18:14.060Z,100599
2017-04-14T05:19:14.539Z,100597
2017-04-14T05:20:15.435Z,100593
2017-04-14T05:21:15.496Z,100609
2017-04-14T05:22:15.587Z,100608
2017-04-14T05:23:16.392Z,100609
2017-04-14T05:24:16.811Z,100579
2017-04-14T05:25:16.923Z,100611
2017-04-14T05:26:17.051Z,100602
2017-04-14T05:27:17.102Z,100604
2017-04-14T05:28:17.093Z,100606
2017-04-14T05:29:17.457Z,100596
2017-04-14T05:30:17.642Z,100609
2017-04-14T05:31:17.835Z,100606
2017-04-14T05:32:18.008Z,100612
2017-04-14T05:46:18.414Z,100637
2017-04-14T05:47:18.492Z,100631
2017-04-14T05:48:18.591Z,100610
2017-04-14T05:49:18.633Z,100621
2017-04-14T05:50:18.681Z,100624
2017-04-14T05:51:19.144Z,100625
2017-04-14T05:52:19.186Z,100630
2017-04-14T05:53:19.290Z,100628
2017-04-14T05:54:19.313Z,100632
2017-04-14T05:55:19.342Z,100630
2017-04-14T05:56:19.777Z,100620
2017-04-14T05:57:19.868Z,100629
2017-04-14T05:58:19.905Z,100630
2017-04-14T05:59:19.993Z,100622
2017-04-14T06:00:20.144Z,100619
2017-04-14T06:01:20.546Z,100618
2017-04-14T06:02:20.693Z,100621
2017-04-14T06:03:22.432Z,100627
2017-04-14T06:04:22.591Z,100629
2017-04-14T06:05:22.689Z,100636
2017-04-14T06:06:23.088Z,100634
2017-04-14T06:07:23.152Z,100635
2017-04-14T06:08:23.244Z,100646
2017-04-14T06:09:23.310Z,100640
2017-04-14T06:10:23.410Z,100638
2017-04-14T06:11:23.755Z,100639
2017-04-14T06:12:23.820Z,100642
2017-04-14T06:13:23.896Z,100646
2017-04-14T06:14:23.980Z,100640
2017-04-14T06:15:24.091Z,100640
2017-04-14T06:16:24.868Z,100635
2017-04-14T06:17:25.061Z,100631
2017-04-14T06:18:25.192Z,100636
2017-04-14T06:19:25.504Z,100632
2017-04-14T06:20:25.673Z,100642
2017-04-14T06:21:26.099Z,100637
2017-04-14T06:22:26.254Z,100636
2017-04-14T06:23:26.334Z,100638
2017-04-14T06:24:26.458Z,100645
2017-04-14T06:25:26.579Z,100645
2017-04-14T06:26:27.161Z,100641
2017-04-14T06:27:27.983Z,100644
2017-04-14T06:28:28.056Z,100643
2017-04-14T06:29:28.145Z,100632
2017-04-14T06:30:28.278Z,100630
2017-04-14T06:31:28.693Z,100636
2017-04-14T06:32:28.787Z,100633
2017-04-14T06:33:28.875Z,100630
2017-04-14T06:34:28.932Z,100636
2017-04-14T06:35:29.008Z,100638
2017-04-14T06:36:29.576Z,100636
2017-04-14T06:37:29.677Z,100635
2017-04-14T06:38:29.779Z,100632
2017-04-14T06:39:30.624Z,100629
2017-04-14T06:40:30.754Z,100633
2017-04-14T06:41:31.173Z,100628
2017-04-14T06:42:31.267Z,100630
2017-04-14T06:43:31.431Z,100624
2017-04-14T06:44:31.579Z,100623
2017-04-14T06:45:31.681Z,100623
2017-04-14T06:46:32.154Z,100628
2017-04-14T06:47:32.267Z,100622
2017-04-14T06:48:32.403Z,100620
2017-04-14T06:49:34.269Z,100618
2017-04-14T06:50:34.264Z,100627
2017-04-14T06:51:33.981Z,100619
2017-04-14T06:52:34.036Z,100600
2017-04-14T06:53:34.109Z,100619
2017-04-14T06:54:34.219Z,100617
2017-04-14T06:55:34.300Z,100620
2017-04-14T06:56:34.699Z,100626
2017-04-14T06:57:34.789Z,100617
2017-04-14T06:58:34.903Z,100613
2017-04-14T06:59:34.982Z,100620
2017-04-14T07:00:35.145Z,100619
2017-04-14T07:01:35.479Z,100616
2017-04-14T07:02:35.722Z,100611
2017-04-14T07:03:36.172Z,100602
2017-04-14T07:04:36.283Z,100605
2017-04-14T07:05:36.539Z,100604
2017-04-14T07:06:36.991Z,100603
2017-04-14T07:07:37.117Z,100603
2017-04-14T07:08:37.991Z,100596
2017-04-14T07:09:38.086Z,100594
2017-04-14T07:10:38.238Z,100597
2017-04-14T07:11:38.724Z,100602
2017-04-14T07:12:38.853Z,100604
2017-04-14T07:13:39.110Z,100595
2017-04-14T07:14:39.137Z,100599
2017-04-14T07:15:39.259Z,100603
2017-04-14T07:16:40.350Z,100597
2017-04-14T07:17:40.423Z,100603
2017-04-14T07:18:40.729Z,100603
2017-04-14T07:19:40.955Z,100595
2017-04-14T07:20:41.023Z,100596
2017-04-14T07:21:41.407Z,100597
2017-04-14T07:22:41.614Z,100603
2017-04-14T07:23:42.029Z,100607
2017-04-14T07:24:42.187Z,100601
2017-04-14T07:25:42.305Z,100601
2017-04-14T07:26:42.895Z,100595
2017-04-14T07:27:42.956Z,100602
2017-04-14T07:28:46.889Z,100604
2017-04-14T07:29:47.042Z,100594
2017-04-14T07:30:47.271Z,100607
2017-04-14T07:31:47.759Z,100605
2017-04-14T07:32:48.069Z,100605
2017-04-14T07:33:48.279Z,100605
2017-04-14T07:34:48.373Z,100600
2017-04-14T07:35:48.839Z,100605
2017-04-14T07:36:49.304Z,100597
2017-04-14T07:37:49.542Z,100599
2017-04-14T07:38:49.590Z,100603
2017-04-14T07:39:49.740Z,100611
2017-04-14T07:40:49.798Z,100605
2017-04-14T07:41:50.288Z,100610
2017-04-14T07:42:50.463Z,100618
2017-04-14T07:43:50.495Z,100607
2017-04-14T07:44:50.624Z,100612
2017-04-14T07:45:50.686Z,100607
2017-04-14T07:46:51.830Z,100607
2017-04-14T07:47:51.943Z,100605
2017-04-14T07:48:52.151Z,100611
2017-04-14T07:49:52.231Z,100616
2017-04-14T07:50:52.371Z,100613
2017-04-14T07:51:53.090Z,100604
2017-04-14T07:52:53.918Z,100614
2017-04-14T07:53:55.143Z,100614
2017-04-14T07:54:55.184Z,100616
2017-04-14T07:55:55.312Z,100611
2017-04-14T07:56:55.836Z,100619
2017-04-14T07:57:56.151Z,100627
2017-04-14T07:58:56.186Z,100619
2017-04-14T07:59:56.251Z,100624
2017-04-14T08:00:56.342Z,100629
2017-04-14T08:01:57.438Z,100619
2017-04-14T08:02:57.503Z,100627
2017-04-14T08:03:57.545Z,100616
2017-04-14T08:04:57.613Z,100636
2017-04-14T08:05:57.891Z,100624
2017-04-14T08:06:58.422Z,100627
2017-04-14T08:07:58.484Z,100631
2017-04-14T08:08:58.527Z,100634
2017-04-14T08:09:58.597Z,100638
2017-04-14T08:10:58.671Z,100631
2017-04-14T08:11:59.170Z,100626
2017-04-14T08:12:59.327Z,100626
2017-04-14T08:13:59.445Z,100624
2017-04-14T08:14:59.553Z,100649
2017-04-14T08:15:59.642Z,100620
2017-04-14T08:17:00.095Z,100630
2017-04-14T08:18:00.297Z,100631
2017-04-14T08:19:00.463Z,100625
2017-04-14T08:20:00.637Z,100635
2017-04-14T08:21:00.675Z,100630
2017-04-14T08:22:01.070Z,100629
2017-04-14T08:23:01.206Z,100626
2017-04-14T08:24:01.429Z,100627
2017-04-14T08:25:01.588Z,100626
2017-04-14T08:26:01.677Z,100627
2017-04-14T08:27:02.056Z,100635
2017-04-14T08:28:03.244Z,100627
2017-04-14T08:29:04.094Z,100628
2017-04-14T08:30:04.264Z,100619
2017-04-14T08:31:10.994Z,100635
2017-04-14T08:32:11.509Z,100628
2017-04-14T08:33:11.800Z,100628
2017-04-14T08:34:12.109Z,100637
2017-04-14T08:35:12.810Z,100636
2017-04-14T08:36:13.007Z,100635
2017-04-14T08:37:13.360Z,100634
2017-04-14T08:38:13.446Z,100635
2017-04-14T08:39:13.558Z,100643
2017-04-14T08:40:13.803Z,100635
2017-04-14T08:41:14.499Z,100632
2017-04-14T08:42:15.751Z,100630
2017-04-14T08:43:16.035Z,100640
2017-04-14T08:44:16.124Z,100631
2017-04-14T08:45:16.256Z,100629
2017-04-14T08:46:16.371Z,100631
2017-04-14T08:47:17.539Z,100633
2017-04-14T08:48:17.631Z,100614
2017-04-14T08:49:17.746Z,100630
2017-04-14T08:50:18.205Z,100630
2017-04-14T08:51:19.277Z,100638
2017-04-14T08:52:20.242Z,100630
2017-04-14T08:53:20.342Z,100635
2017-04-14T08:54:20.619Z,100631
2017-04-14T08:55:20.714Z,100634
2017-04-14T08:56:21.354Z,100634
2017-04-14T08:57:21.752Z,100638
2017-04-14T08:58:21.839Z,100629
2017-04-14T08:59:21.919Z,100616
2017-04-14T09:00:22.024Z,100630
2017-04-14T09:01:22.376Z,100629
2017-04-14T09:02:23.041Z,100624
2017-04-14T09:03:23.178Z,100631
2017-04-14T09:04:23.264Z,100626
2017-04-14T09:05:23.347Z,100624
2017-04-14T09:06:23.700Z,100639
2017-04-14T09:07:24.149Z,100642
2017-04-14T09:08:24.932Z,100636
2017-04-14T09:09:25.090Z,100627
2017-04-14T09:10:25.270Z,100631
2017-04-14T09:11:25.431Z,100631
2017-04-14T09:12:26.528Z,100649
2017-04-14T09:13:26.694Z,100636
2017-04-14T09:14:26.903Z,100644
2017-04-14T09:15:26.991Z,100634
2017-04-14T09:16:27.104Z,100630
2017-04-14T09:17:27.745Z,100637
2017-04-14T09:18:27.870Z,100641
2017-04-14T09:19:28.012Z,100630
2017-04-14T09:20:28.195Z,100627
2017-04-14T09:21:28.345Z,100634
2017-04-14T09:22:28.797Z,100630
2017-04-14T09:23:28.838Z,100633
2017-04-14T09:24:28.919Z,100634
2017-04-14T09:25:28.980Z,100629
2017-04-14T09:26:29.139Z,100633
2017-04-14T09:27:29.651Z,100632
2017-04-14T09:28:29.746Z,100626
2017-04-14T09:29:30.610Z,100631
2017-04-14T09:30:30.665Z,100618
2017-04-14T09:31:30.912Z,100621
2017-04-14T09:32:31.398Z,100615
2017-04-14T09:33:31.487Z,100623
2017-04-14T09:34:31.576Z,100616
2017-04-14T09:35:31.734Z,100629
2017-04-14T09:36:31.960Z,100621
2017-04-14T09:37:32.379Z,100614
2017-04-14T09:38:32.951Z,100627
2017-04-14T09:39:33.046Z,100620
2017-04-14T09:40:33.094Z,100631
2017-04-14T09:41:33.951Z,100621
2017-04-14T09:42:34.458Z,100619
2017-04-14T09:43:34.562Z,100620
2017-04-14T09:44:34.945Z,100620
2017-04-14T09:45:35.110Z,100627
2017-04-14T09:46:35.231Z,100620
2017-04-14T09:47:35.806Z,100614
2017-04-14T09:48:35.960Z,100615
2017-04-14T09:49:36.092Z,100612
2017-04-14T09:50:36.223Z,100616
2017-04-14T09:51:36.400Z,100618
2017-04-14T09:52:36.509Z,100622
2017-04-14T09:53:37.332Z,100620
2017-04-14T09:54:37.374Z,100620
2017-04-14T09:55:37.592Z,100626
2017-04-14T09:56:37.760Z,100623
2017-04-14T09:57:38.454Z,100618
2017-04-14T09:58:38.658Z,100617
2017-04-14T09:59:38.760Z,100614
2017-04-14T10:00:39.828Z,100612
2017-04-14T10:01:40.031Z,100612
2017-04-14T10:02:40.620Z,100616
2017-04-14T10:03:40.746Z,100611
2017-04-14T10:04:40.802Z,100604
2017-04-14T10:05:40.887Z,100615
2017-04-14T10:06:40.997Z,100612
2017-04-14T10:07:41.590Z,100606
2017-04-14T10:08:41.622Z,100594
2017-04-14T10:09:41.876Z,100601
2017-04-14T10:10:42.126Z,100605
2017-04-14T10:11:42.167Z,100604
2017-04-14T10:12:42.532Z,100608
2017-04-14T10:13:43.728Z,100603
2017-04-14T10:14:43.819Z,100604
2017-04-14T10:15:44.097Z,100605
2017-04-14T10:16:44.129Z,100623
2017-04-14T10:17:44.797Z,100599
2017-04-14T10:18:44.838Z,100612
2017-04-14T10:19:44.880Z,100610
2017-04-14T10:20:44.901Z,100606
2017-04-14T10:21:44.977Z,100609
2017-04-14T10:22:45.524Z,100604
2017-04-14T10:23:45.639Z,100614
2017-04-14T10:24:45.725Z,100612
2017-04-14T10:25:45.811Z,100605
2017-04-14T10:26:46.078Z,100610
2017-04-14T10:27:46.615Z,100607
2017-04-14T10:28:46.706Z,100608
2017-04-14T10:29:46.761Z,100603
2017-04-14T10:30:46.929Z,100601
2017-04-14T10:31:47.975Z,100613
2017-04-14T10:32:48.395Z,100603
2017-04-14T10:33:48.542Z,100602
2017-04-14T10:34:48.754Z,100610
2017-04-14T10:35:48.797Z,100606
2017-04-14T10:36:48.827Z,100610
2017-04-14T10:37:49.179Z,100611
2017-04-14T10:38:50.033Z,100609
2017-04-14T10:39:50.254Z,100610
2017-04-14T10:40:50.471Z,100609
2017-04-14T10:41:50.765Z,100609
2017-04-14T10:42:51.313Z,100620
2017-04-14T10:43:52.377Z,100616
2017-04-14T10:44:52.546Z,100620
2017-04-14T10:45:53.869Z,100619
2017-04-14T10:46:54.040Z,100619
2017-04-14T10:47:54.507Z,100615
2017-04-14T10:48:54.598Z,100619
2017-04-14T10:49:54.723Z,100618
2017-04-14T10:50:54.743Z,100608
2017-04-14T10:51:56.151Z,100612
2017-04-14T10:52:56.799Z,100621
2017-04-14T10:53:57.644Z,100617
2017-04-14T10:54:57.698Z,100615
2017-04-14T10:55:57.802Z,100618
2017-04-14T10:56:58.102Z,100618
2017-04-14T10:57:58.597Z,100616
2017-04-14T10:58:58.705Z,100618
2017-04-14T10:59:58.887Z,100615
2017-04-14T11:00:59.736Z,100621
2017-04-14T11:01:59.992Z,100621
2017-04-14T11:03:00.957Z,100616
2017-04-14T11:04:01.968Z,100612
2017-04-14T11:05:01.987Z,100614
2017-04-14T11:06:02.103Z,100621
2017-04-14T11:07:02.913Z,100615
2017-04-14T11:08:03.369Z,100628
2017-04-14T11:09:03.445Z,100626
2017-04-14T11:10:04.594Z,100604
2017-04-14T11:11:04.858Z,100617
2017-04-14T11:12:04.963Z,100614
2017-04-14T11:13:05.323Z,100615
2017-04-14T11:14:06.164Z,100615
2017-04-14T11:15:06.236Z,100613
2017-04-14T11:16:06.375Z,100619
2017-04-14T11:17:07.277Z,100613
2017-04-14T11:18:07.877Z,100612
2017-04-14T11:19:08.012Z,100608
2017-04-14T11:20:08.153Z,100609
2017-04-14T11:21:08.369Z,100606
2017-04-14T11:22:08.469Z,100610
2017-04-14T11:23:09.022Z,100608
2017-04-14T11:24:09.037Z,100608
2017-04-14T11:25:09.146Z,100613
2017-04-14T11:26:09.209Z,100610
2017-04-14T11:27:09.332Z,100605
2017-04-14T11:28:10.181Z,100601
2017-04-14T11:29:10.299Z,100595
2017-04-14T11:30:10.614Z,100606
2017-04-14T11:31:10.691Z,100600
2017-04-14T11:32:10.840Z,100616
2017-04-14T11:33:11.557Z,100606
2017-04-14T11:34:11.621Z,100600
2017-04-14T11:35:12.135Z,100600
2017-04-14T11:36:12.446Z,100604
2017-04-14T11:37:12.552Z,100607
2017-04-14T11:38:13.070Z,100598
2017-04-14T11:39:13.183Z,100598
2017-04-14T11:40:14.275Z,100608
2017-04-14T11:41:14.432Z,100604
2017-04-14T11:42:14.761Z,100606
2017-04-14T11:43:15.261Z,100609
2017-04-14T11:44:15.397Z,100614
2017-04-14T11:45:15.674Z,100615
2017-04-14T11:46:15.963Z,100610
2017-04-14T11:47:16.038Z,100604
2017-04-14T11:48:16.442Z,100618
2017-04-14T11:49:16.640Z,100608
2017-04-14T11:50:17.254Z,100610
2017-04-14T11:51:17.483Z,100619
2017-04-14T11:52:17.726Z,100622
2017-04-14T11:53:18.088Z,100601
2017-04-14T11:54:18.287Z,100603
2017-04-14T11:55:19.111Z,100613
2017-04-14T11:56:19.226Z,100608
2017-04-14T11:57:19.397Z,100600
2017-04-14T11:58:19.888Z,100608
2017-04-14T11:59:19.958Z,100609
2017-04-14T12:00:20.759Z,100615
2017-04-14T12:01:20.864Z,100601
2017-04-14T12:02:20.939Z,100600
2017-04-14T12:03:21.320Z,100601
2017-04-14T12:04:22.051Z,100601
2017-04-14T12:05:22.171Z,100600
2017-04-14T12:06:22.260Z,100601
2017-04-14T12:07:22.325Z,100603
2017-04-14T12:08:22.699Z,100594
2017-04-14T12:09:22.792Z,100600
2017-04-14T12:10:22.879Z,100596
2017-04-14T12:11:23.010Z,100600
2017-04-14T12:12:23.854Z,100599
2017-04-14T12:13:24.204Z,100611
2017-04-14T12:14:24.331Z,100603
2017-04-14T12:15:24.508Z,100609
2017-04-14T12:16:24.593Z,100607
2017-04-14T12:17:24.742Z,100605
2017-04-14T12:18:24.896Z,100616
2017-04-14T12:19:25.135Z,100607
2017-04-14T12:20:25.287Z,100609
2017-04-14T12:21:25.369Z,100609
2017-04-14T12:22:25.752Z,100605
2017-04-14T12:23:26.256Z,100604
2017-04-14T12:24:26.284Z,100603
2017-04-14T12:25:26.327Z,100603
2017-04-14T12:26:26.469Z,100598
2017-04-14T12:27:26.523Z,100601
2017-04-14T12:28:27.330Z,100611
2017-04-14T12:29:27.552Z,100605
2017-04-14T12:30:27.700Z,100606
2017-04-14T12:31:28.018Z,100603
2017-04-14T12:32:28.180Z,100605
2017-04-14T12:33:28.745Z,100602
2017-04-14T12:34:28.843Z,100605
2017-04-14T12:35:29.056Z,100605
2017-04-14T12:36:29.174Z,100622
2017-04-14T12:37:29.324Z,100606
2017-04-14T12:38:29.765Z,100606
2017-04-14T12:39:29.908Z,100600
2017-04-14T12:40:30.028Z,100602
2017-04-14T12:41:30.129Z,100605
2017-04-14T12:42:30.362Z,100601
2017-04-14T12:43:30.893Z,100610
2017-04-14T12:44:31.212Z,100612
2017-04-14T12:45:31.491Z,100614